createdAt,value
2019-04-05T00:01:56.913Z,120.30
2019-04-05T00:04:25.585Z,115.57
2019-04-05T00:06:54.012Z,119.87
2019-04-05T00:09:22.549Z,122.17
2019-04-05T00:11:50.981Z,128.80
2019-04-05T00:14:19.412Z,128.20
2019-04-05T00:16:47.937Z,118.93
2019-04-05T00:19:16.369Z,116.00
2019-04-05T00:21:44.805Z,123.25
2019-04-05T00:24:13.261Z,130.00
2019-04-05T00:26:41.697Z,130.52
2019-04-05T00:29:10.113Z,122.60
2019-04-05T00:31:38.576Z,127.70
2019-04-05T00:34:07.006Z,123.67
2019-04-05T00:36:35.437Z,120.37
2019-04-05T00:39:05.476Z,130.97
2019-04-05T00:41:33.914Z,126.18
2019-04-05T00:44:02.353Z,126.82
2019-04-05T00:46:30.792Z,135.63
2019-04-05T00:48:59.225Z,134.78
2019-04-05T00:51:27.730Z,134.10
2019-04-05T00:53:56.230Z,138.68
2019-04-05T00:56:24.961Z,147.10
2019-04-05T00:58:53.392Z,145.57
2019-04-05T01:01:21.860Z,152.60
2019-04-05T01:03:50.295Z,154.95
2019-04-05T01:06:18.745Z,158.80
2019-04-05T01:08:47.276Z,165.20
2019-04-05T01:11:15.705Z,165.57
2019-04-05T01:13:44.213Z,169.68
2019-04-05T01:16:12.678Z,169.35
2019-04-05T01:18:41.121Z,165.45
2019-04-05T01:21:12.065Z,183.87
2019-04-05T01:23:40.521Z,169.62
2019-04-05T01:26:09.398Z,173.32
2019-04-05T01:28:37.827Z,182.07
2019-04-05T01:31:06.292Z,177.50
2019-04-05T01:33:34.896Z,195.55
2019-04-05T01:36:03.326Z,191.68
2019-04-05T01:38:32.073Z,184.28
2019-04-05T01:41:00.833Z,193.85
2019-04-05T01:43:29.266Z,216.73
2019-04-05T01:45:58.358Z,198.57
2019-04-05T01:48:26.793Z,193.47
2019-04-05T01:50:55.289Z,193.27
2019-04-05T01:53:23.818Z,200.10
2019-04-05T01:55:52.249Z,195.72
2019-04-05T01:58:20.671Z,196.25
2019-04-05T02:00:49.165Z,198.75
2019-04-05T02:03:17.641Z,193.93
2019-04-05T02:05:46.088Z,197.62
2019-04-05T02:08:14.530Z,194.43
2019-04-05T02:10:43.304Z,201.82
2019-04-05T02:13:11.738Z,200.25
2019-04-05T02:15:40.208Z,209.83
2019-04-05T02:18:08.651Z,217.90
2019-04-05T02:20:37.101Z,224.00
2019-04-05T02:23:05.546Z,216.27
2019-04-05T02:25:33.972Z,219.57
2019-04-05T02:28:02.517Z,226.22
2019-04-05T02:30:31.081Z,208.82
2019-04-05T02:32:59.539Z,197.13
2019-04-05T02:35:28.030Z,186.52
2019-04-05T02:37:56.814Z,183.12
2019-04-05T02:40:26.694Z,177.65
2019-04-05T02:42:57.445Z,175.00
2019-04-05T02:45:29.270Z,174.07
2019-04-05T02:48:01.117Z,171.27
2019-04-05T02:50:32.183Z,165.57
2019-04-05T02:53:03.945Z,158.90
2019-04-05T02:55:32.622Z,165.85
2019-04-05T02:58:03.264Z,144.50
2019-04-05T03:00:33.663Z,143.97
2019-04-05T03:03:03.427Z,150.55
2019-04-05T03:05:32.099Z,145.20
2019-04-05T03:08:00.637Z,145.20
2019-04-05T03:10:54.488Z,140.50
2019-04-05T03:13:28.685Z,141.95
2019-04-05T03:15:59.464Z,135.50
2019-04-05T03:18:29.979Z,134.30
2019-04-05T03:21:01.510Z,131.40
2019-04-05T03:23:32.864Z,126.90
2019-04-05T03:26:04.389Z,127.07
2019-04-05T03:28:35.992Z,126.00
2019-04-05T03:31:04.505Z,121.67
2019-04-05T03:33:32.938Z,124.65
2019-04-05T03:36:01.825Z,124.65
2019-04-05T03:38:30.693Z,120.60
2019-04-05T03:40:59.556Z,121.75
2019-04-05T03:43:28.322Z,115.42
2019-04-05T03:45:56.818Z,120.62
2019-04-05T03:48:25.522Z,113.08
2019-04-05T03:50:53.972Z,109.95
2019-04-05T03:53:23.249Z,107.43
2019-04-05T03:55:51.989Z,110.12
2019-04-05T03:58:20.911Z,109.57
2019-04-05T04:00:49.476Z,107.17
2019-04-05T04:03:17.926Z,102.65
2019-04-05T04:05:46.520Z,104.55
2019-04-05T04:08:15.178Z,107.27
2019-04-05T04:10:43.851Z,103.90
2019-04-05T04:13:12.562Z,97.60
2019-04-05T04:15:41.052Z,97.35
2019-04-05T04:18:09.763Z,100.47
2019-04-05T04:20:46.854Z,94.20
2019-04-05T04:23:15.643Z,100.47
2019-04-05T04:25:44.471Z,101.38
2019-04-05T04:28:13.594Z,103.75
2019-04-05T04:30:42.494Z,112.95
2019-04-05T04:33:11.592Z,114.70
2019-04-05T04:35:41.216Z,111.50
2019-04-05T04:38:09.657Z,121.05
2019-04-05T04:40:38.153Z,130.22
2019-04-05T04:43:06.948Z,124.82
2019-04-05T04:45:35.887Z,127.32
2019-04-05T04:48:04.422Z,125.85
2019-04-05T04:50:33.269Z,128.15
2019-04-05T04:53:02.109Z,126.42
2019-04-05T04:55:30.529Z,119.70
2019-04-05T04:57:59.213Z,117.60
2019-04-05T05:00:27.785Z,110.83
2019-04-05T05:02:57.741Z,118.87
2019-04-05T05:05:27.380Z,114.22
2019-04-05T05:07:55.889Z,112.70
2019-04-05T05:10:24.401Z,121.57
2019-04-05T05:12:52.917Z,113.35
2019-04-05T05:15:21.815Z,117.33
2019-04-05T05:17:58.534Z,115.90
2019-04-05T05:20:21.009Z,116.73
2019-04-05T05:22:49.594Z,113.45
2019-04-05T05:25:18.391Z,115.40
2019-04-05T05:27:46.985Z,113.20
2019-04-05T05:30:15.611Z,117.30
2019-04-05T05:32:44.279Z,113.92
2019-04-05T05:35:12.969Z,121.62
2019-04-05T05:37:41.583Z,123.07
2019-04-05T05:40:10.889Z,124.55
2019-04-05T05:42:39.456Z,115.85
2019-04-05T05:45:09.697Z,118.60
2019-04-05T05:47:50.707Z,117.65
2019-04-05T05:50:08.833Z,121.85
2019-04-05T05:52:37.433Z,114.03
2019-04-05T05:55:08.609Z,106.85
2019-04-05T05:57:37.168Z,109.00
2019-04-05T06:00:08.213Z,114.35
2019-04-05T06:02:38.730Z,113.90
2019-04-05T06:05:07.111Z,104.83
2019-04-05T06:07:35.544Z,112.92
2019-04-05T06:10:08.587Z,111.45
2019-04-05T06:12:37.324Z,117.67
2019-04-05T06:15:06.963Z,110.30
2019-04-05T06:17:35.473Z,112.80
2019-04-05T06:20:04.906Z,114.20
2019-04-05T06:22:33.353Z,113.03
2019-04-05T06:25:01.812Z,114.52
2019-04-05T06:27:30.265Z,110.57
2019-04-05T06:29:58.705Z,113.22
2019-04-05T06:32:27.169Z,108.80
2019-04-05T06:34:55.766Z,108.40
2019-04-05T06:37:24.955Z,108.00
2019-04-05T06:39:53.665Z,110.80
2019-04-05T06:42:22.142Z,106.75
2019-04-05T06:44:50.584Z,113.72
2019-04-05T06:47:19.020Z,115.08
2019-04-05T06:49:47.464Z,109.92
2019-04-05T06:52:16.365Z,111.10
2019-04-05T06:54:44.804Z,117.00
2019-04-05T06:57:13.246Z,114.97
2019-04-05T06:59:41.699Z,114.35
2019-04-05T07:02:10.131Z,107.80
2019-04-05T07:04:38.616Z,106.10
2019-04-05T07:07:07.063Z,109.52
2019-04-05T07:09:35.544Z,101.67
2019-04-05T07:12:04.000Z,100.47
2019-04-05T07:14:32.482Z,95.75
2019-04-05T07:17:00.989Z,93.05
2019-04-05T07:19:29.451Z,89.58
2019-04-05T07:21:57.992Z,89.60
2019-04-05T07:24:26.413Z,90.42
2019-04-05T07:26:54.860Z,93.72
2019-04-05T07:29:23.284Z,96.50
2019-04-05T07:31:51.756Z,97.80
2019-04-05T07:34:20.195Z,99.00
2019-04-05T07:36:48.645Z,91.75
2019-04-05T07:39:17.156Z,92.97
2019-04-05T07:41:45.608Z,94.83
2019-04-05T07:44:14.033Z,93.10
2019-04-05T07:46:42.470Z,89.07
2019-04-05T07:49:11.333Z,85.83
2019-04-05T07:51:39.769Z,80.47
2019-04-05T07:54:08.221Z,80.25
2019-04-05T07:56:36.823Z,81.75
2019-04-05T07:59:05.252Z,83.05
2019-04-05T08:01:34.259Z,85.85
2019-04-05T08:04:02.801Z,81.90
2019-04-05T08:06:33.789Z,81.35
2019-04-05T08:09:05.670Z,82.95
2019-04-05T08:11:34.114Z,79.37
2019-04-05T08:14:02.886Z,78.25
2019-04-05T08:16:31.414Z,80.50
2019-04-05T08:18:59.897Z,80.12
2019-04-05T08:21:28.400Z,84.45
2019-04-05T08:23:56.812Z,77.95
2019-04-05T08:26:25.303Z,82.25
2019-04-05T08:28:53.817Z,78.65
2019-04-05T08:31:22.242Z,79.40
2019-04-05T08:33:50.795Z,83.60
2019-04-05T08:36:19.304Z,83.40
2019-04-05T08:38:47.813Z,80.22
2019-04-05T08:41:16.329Z,79.77
2019-04-05T08:43:47.302Z,76.77
2019-04-05T08:46:15.897Z,82.47
2019-04-05T08:48:44.611Z,77.60
2019-04-05T08:51:13.059Z,81.20
2019-04-05T08:53:41.555Z,83.20
2019-04-05T08:56:10.901Z,79.60
2019-04-05T08:58:40.266Z,79.03
2019-04-05T09:01:09.568Z,75.70
2019-04-05T09:03:41.637Z,73.85
2019-04-05T09:06:10.181Z,72.65
2019-04-05T09:08:38.772Z,73.30
2019-04-05T09:11:07.469Z,74.62
2019-04-05T09:13:35.898Z,76.07
2019-04-05T09:16:04.329Z,77.55
2019-04-05T09:18:32.988Z,75.70
2019-04-05T09:21:01.446Z,78.30
2019-04-05T09:23:31.001Z,71.90
2019-04-05T09:25:59.436Z,74.80
2019-04-05T09:28:27.937Z,74.22
2019-04-05T09:30:56.380Z,73.55
2019-04-05T09:33:24.828Z,72.78
2019-04-05T09:35:53.290Z,70.53
2019-04-05T09:38:21.849Z,72.30
2019-04-05T09:40:50.382Z,71.60
2019-04-05T09:43:18.865Z,69.05
2019-04-05T09:45:50.469Z,71.35
2019-04-05T09:48:18.997Z,72.95
2019-04-05T09:50:48.321Z,71.47
2019-04-05T09:53:16.753Z,73.43
2019-04-05T09:55:45.208Z,69.50
2019-04-05T09:58:13.715Z,69.62
2019-04-05T10:00:43.463Z,73.85
2019-04-05T10:03:11.909Z,67.90
2019-04-05T10:05:40.341Z,70.40
2019-04-05T10:08:08.787Z,69.80
2019-04-05T10:10:37.315Z,68.00
2019-04-05T10:13:05.810Z,67.55
2019-04-05T10:15:34.259Z,69.47
2019-04-05T10:18:02.786Z,70.25
2019-04-05T10:20:32.358Z,70.07
2019-04-05T10:23:00.783Z,71.00
2019-04-05T10:25:29.237Z,69.07
2019-04-05T10:27:57.696Z,69.90
2019-04-05T10:30:26.153Z,70.67
2019-04-05T10:32:57.064Z,72.22
2019-04-05T10:35:25.507Z,71.42
2019-04-05T10:37:53.961Z,70.37
2019-04-05T10:40:22.489Z,69.03
2019-04-05T10:42:51.177Z,68.75
2019-04-05T10:45:20.003Z,69.22
2019-04-05T10:47:48.491Z,65.40
2019-04-05T10:50:18.372Z,65.55
2019-04-05T10:52:46.806Z,67.42
2019-04-05T10:55:15.631Z,67.75
2019-04-05T10:57:44.083Z,67.58
2019-04-05T11:00:15.209Z,67.22
2019-04-05T11:02:43.685Z,67.85
2019-04-05T11:05:12.350Z,69.30
2019-04-05T11:07:40.771Z,71.80
2019-04-05T11:10:09.454Z,67.30
2019-04-05T11:12:37.913Z,69.10
2019-04-05T11:15:07.723Z,66.07
2019-04-05T11:17:36.293Z,67.55
2019-04-05T11:20:20.701Z,67.27
2019-04-05T11:22:40.320Z,63.78
2019-04-05T11:25:09.434Z,68.25
2019-04-05T11:27:37.903Z,67.30
2019-04-05T11:30:08.697Z,67.58
2019-04-05T11:32:37.196Z,70.75
2019-04-05T11:35:07.468Z,68.50
2019-04-05T11:37:39.369Z,67.32
2019-04-05T11:40:08.854Z,68.12
2019-04-05T11:42:38.229Z,68.22
2019-04-05T11:45:10.117Z,67.72
2019-04-05T11:47:40.793Z,71.17
2019-04-05T11:50:11.966Z,67.78
2019-04-05T11:52:40.460Z,67.15
2019-04-05T11:55:09.037Z,65.17
2019-04-05T11:57:41.021Z,67.30
2019-04-05T12:00:14.725Z,66.12
2019-04-05T12:02:50.784Z,66.50
2019-04-05T12:05:20.372Z,68.77
2019-04-05T12:07:49.557Z,67.80
2019-04-05T12:10:19.427Z,67.22
2019-04-05T12:12:48.109Z,68.25
2019-04-05T12:15:16.615Z,67.70
2019-04-05T12:17:45.050Z,69.55
2019-04-05T12:20:14.311Z,68.55
2019-04-05T12:22:42.741Z,67.00
2019-04-05T12:25:11.213Z,70.08
2019-04-05T12:27:39.716Z,69.07
2019-04-05T12:30:10.318Z,68.83
2019-04-05T12:32:41.593Z,66.42
2019-04-05T12:35:09.268Z,67.58
2019-04-05T12:37:49.608Z,64.97
2019-04-05T12:40:10.144Z,66.65
2019-04-05T12:42:42.608Z,63.10
2019-04-05T12:45:14.022Z,65.05
2019-04-05T12:47:40.657Z,64.30
2019-04-05T12:50:09.901Z,65.08
2019-04-05T12:52:38.373Z,64.53
2019-04-05T12:55:07.349Z,65.37
2019-04-05T12:57:36.130Z,66.65
2019-04-05T13:00:07.701Z,68.40
2019-04-05T13:02:36.205Z,69.82
2019-04-05T13:05:06.036Z,69.73
2019-04-05T13:07:35.247Z,69.00
2019-04-05T13:10:05.270Z,70.20
2019-04-05T13:12:33.762Z,72.60
2019-04-05T13:15:11.762Z,70.50
2019-04-05T13:17:32.619Z,76.50
2019-04-05T13:20:01.364Z,78.20
2019-04-05T13:22:32.244Z,82.30
2019-04-05T13:24:59.987Z,82.47
2019-04-05T13:27:28.460Z,88.20
2019-04-05T13:29:56.912Z,92.90
2019-04-05T13:32:25.369Z,93.92
2019-04-05T13:34:55.820Z,92.30
2019-04-05T13:37:24.060Z,90.83
2019-04-05T13:39:52.506Z,86.65
2019-04-05T13:42:21.807Z,85.40
2019-04-05T13:44:50.490Z,82.75
2019-04-05T13:47:18.945Z,76.62
2019-04-05T13:49:47.482Z,77.95
2019-04-05T13:52:15.993Z,74.57
2019-04-05T13:54:44.428Z,72.60
2019-04-05T13:57:13.213Z,72.92
2019-04-05T13:59:44.469Z,70.45
2019-04-05T14:02:11.795Z,73.00
2019-04-05T14:04:40.251Z,72.10
2019-04-05T14:07:08.679Z,73.00
2019-04-05T14:09:38.484Z,71.70
2019-04-05T14:12:09.577Z,74.22
2019-04-05T14:14:39.441Z,74.65
2019-04-05T14:17:07.774Z,78.33
2019-04-05T14:19:36.238Z,76.20
2019-04-05T14:22:08.963Z,76.17
2019-04-05T14:24:35.077Z,73.92
2019-04-05T14:27:04.067Z,72.35
2019-04-05T14:29:33.343Z,77.62
2019-04-05T14:32:19.490Z,74.58
2019-04-05T14:34:32.432Z,72.78
2019-04-05T14:37:00.884Z,74.42
2019-04-05T14:39:29.586Z,68.78
2019-04-05T14:42:09.167Z,71.77
2019-04-05T14:44:28.252Z,73.62
2019-04-05T14:46:58.132Z,72.35
2019-04-05T14:49:30.253Z,75.70
2019-04-05T14:52:00.787Z,77.80
2019-04-05T14:54:27.219Z,80.55
2019-04-05T14:56:57.359Z,79.53
2019-04-05T14:59:25.842Z,82.88
2019-04-05T15:01:54.281Z,81.17
2019-04-05T15:04:22.742Z,78.28
2019-04-05T15:06:51.446Z,74.80
2019-04-05T15:09:23.674Z,79.58
2019-04-05T15:11:50.197Z,74.95
2019-04-05T15:14:18.641Z,76.80
2019-04-05T15:16:47.082Z,77.60
2019-04-05T15:19:15.538Z,75.78
2019-04-05T15:21:45.010Z,73.97
2019-04-05T15:24:15.952Z,71.10
2019-04-05T15:26:43.733Z,72.75
2019-04-05T15:29:12.156Z,73.80
2019-04-05T15:31:40.623Z,68.20
2019-04-05T15:34:09.405Z,69.07
2019-04-05T15:36:37.857Z,68.50
2019-04-05T15:39:08.610Z,67.80
2019-04-05T15:41:37.308Z,70.53
2019-04-05T15:44:05.853Z,71.97
2019-04-05T15:46:34.310Z,68.92
2019-04-05T15:49:02.777Z,71.00
2019-04-05T15:51:31.210Z,71.40
2019-04-05T15:54:01.486Z,72.47
2019-04-05T15:56:33.367Z,72.60
2019-04-05T15:59:03.666Z,74.05
2019-04-05T16:01:32.068Z,74.32
2019-04-05T16:04:00.552Z,72.82
2019-04-05T16:06:30.512Z,67.37
2019-04-05T16:08:58.948Z,66.28
2019-04-05T16:11:27.427Z,67.67
2019-04-05T16:13:55.848Z,62.35
2019-04-05T16:16:24.282Z,67.20
2019-04-05T16:18:52.738Z,65.20
2019-04-05T16:21:21.184Z,69.58
2019-04-05T16:23:49.616Z,67.72
2019-04-05T16:26:18.310Z,65.37
2019-04-05T16:28:46.748Z,65.62
2019-04-05T16:31:15.176Z,63.08
2019-04-05T16:33:43.657Z,65.55
2019-04-05T16:36:12.109Z,70.47
2019-04-05T16:38:40.537Z,62.27
2019-04-05T16:41:09.001Z,67.75
2019-04-05T16:43:37.713Z,60.70
2019-04-05T16:46:06.136Z,62.73
2019-04-05T16:48:34.624Z,60.30
2019-04-05T16:51:03.057Z,61.63
2019-04-05T16:53:31.760Z,58.20
2019-04-05T16:56:00.281Z,57.45
2019-04-05T16:58:28.708Z,58.80
2019-04-05T17:00:57.409Z,53.90
2019-04-05T17:03:25.956Z,55.30
2019-04-05T17:05:54.387Z,54.98
2019-04-05T17:08:24.966Z,53.52
2019-04-05T17:10:53.451Z,54.50
2019-04-05T17:13:21.952Z,57.67
2019-04-05T17:15:50.388Z,54.67
2019-04-05T17:18:20.114Z,56.20
2019-04-05T17:20:48.645Z,54.58
2019-04-05T17:23:17.109Z,54.73
2019-04-05T17:25:45.641Z,55.70
2019-04-05T17:28:14.085Z,54.75
2019-04-05T17:30:42.525Z,56.90
2019-04-05T17:33:10.986Z,53.02
2019-04-05T17:35:39.415Z,53.83
2019-04-05T17:38:07.847Z,55.90
2019-04-05T17:40:36.309Z,54.25
2019-04-05T17:43:04.751Z,55.63
2019-04-05T17:45:33.288Z,56.77
2019-04-05T17:48:01.772Z,57.05
2019-04-05T17:50:32.345Z,57.93
2019-04-05T17:53:11.444Z,56.50
2019-04-05T17:55:31.461Z,54.65
2019-04-05T17:58:00.788Z,55.47
2019-04-05T18:00:29.240Z,57.20
2019-04-05T18:02:57.862Z,56.83
2019-04-05T18:05:26.369Z,57.23
2019-04-05T18:07:54.813Z,55.70
2019-04-05T18:10:23.336Z,56.33
2019-04-05T18:12:51.773Z,59.98
2019-04-05T18:15:20.213Z,58.25
2019-04-05T18:17:48.662Z,54.83
2019-04-05T18:20:17.164Z,56.63
2019-04-05T18:22:45.621Z,61.77
2019-04-05T18:25:14.437Z,58.65
2019-04-05T18:27:42.938Z,63.50
2019-04-05T18:30:11.437Z,57.85
2019-04-05T18:32:39.890Z,54.93
2019-04-05T18:35:08.486Z,61.05
2019-04-05T18:37:37.012Z,63.05
2019-04-05T18:40:07.019Z,68.07
2019-04-05T18:42:35.542Z,61.65
2019-04-05T18:45:06.128Z,61.42
2019-04-05T18:47:34.628Z,56.88
2019-04-05T18:50:07.848Z,53.87
2019-04-05T18:52:36.663Z,55.45
2019-04-05T18:55:07.243Z,62.98
2019-04-05T18:57:38.312Z,60.85
2019-04-05T19:00:07.842Z,60.83
2019-04-05T19:02:37.092Z,60.57
2019-04-05T19:05:06.828Z,58.13
2019-04-05T19:07:36.058Z,57.20
2019-04-05T19:10:07.221Z,56.88
2019-04-05T19:12:37.377Z,59.18
2019-04-05T19:15:07.784Z,57.05
2019-04-05T19:17:36.667Z,56.20
2019-04-05T19:20:06.283Z,56.23
2019-04-05T19:22:34.714Z,56.53
2019-04-05T19:25:05.028Z,52.25
2019-04-05T19:27:33.914Z,52.45
2019-04-05T19:50:05.883Z,53.55
2019-04-05T19:52:34.360Z,54.20
2019-04-05T19:55:02.858Z,57.30
2019-04-05T19:57:31.281Z,57.67
2019-04-05T19:59:59.714Z,55.50
2019-04-05T20:02:28.245Z,57.48
2019-04-05T20:04:56.682Z,63.98
2019-04-05T20:07:25.127Z,61.33
2019-04-05T20:09:53.666Z,61.10
2019-04-05T20:12:22.098Z,60.15
2019-04-05T20:14:51.507Z,61.50
2019-04-05T20:17:19.967Z,62.27
2019-04-05T20:19:48.405Z,63.20
2019-04-05T20:22:16.843Z,67.10
2019-04-05T20:24:45.305Z,57.47
2019-04-05T20:27:13.745Z,59.30
2019-04-05T20:29:43.345Z,63.75
2019-04-05T20:32:11.834Z,64.53
2019-04-05T20:34:40.280Z,61.90
2019-04-05T20:37:08.705Z,60.77
2019-04-05T20:39:37.163Z,61.58
2019-04-05T20:42:06.483Z,56.35
2019-04-05T20:44:34.927Z,63.30
2019-04-05T20:47:03.449Z,58.40
2019-04-05T20:49:31.955Z,58.58
2019-04-05T20:52:00.660Z,57.83
2019-04-05T20:54:29.101Z,54.83
2019-04-05T20:56:57.539Z,58.75
2019-04-05T20:59:25.993Z,64.23
2019-04-05T21:01:54.576Z,61.10
2019-04-05T21:04:23.057Z,62.20
2019-04-05T21:06:51.556Z,62.85
2019-04-05T21:09:20.056Z,63.25
2019-04-05T21:11:48.521Z,59.93
2019-04-05T21:14:17.017Z,63.73
2019-04-05T21:16:45.461Z,61.77
2019-04-05T21:19:13.912Z,65.90
2019-04-05T21:21:42.344Z,67.42
2019-04-05T21:24:10.795Z,67.05
2019-04-05T21:26:39.305Z,68.30
2019-04-05T21:29:07.735Z,64.25
2019-04-05T21:31:36.192Z,68.35
2019-04-05T21:34:04.625Z,65.17
2019-04-05T21:36:33.056Z,67.63
2019-04-05T21:39:01.513Z,64.60
2019-04-05T21:41:30.837Z,70.10
2019-04-05T21:43:59.356Z,65.15
2019-04-05T21:46:27.885Z,61.50
2019-04-05T21:48:56.360Z,66.93
2019-04-05T21:51:27.737Z,61.35
2019-04-05T21:53:56.233Z,65.90
2019-04-05T21:56:24.709Z,65.65
2019-04-05T21:58:53.138Z,61.90
2019-04-05T22:01:22.914Z,61.55
2019-04-05T22:03:51.352Z,62.93
2019-04-05T22:06:19.803Z,60.10
2019-04-05T22:08:48.274Z,65.28
2019-04-05T22:11:16.698Z,60.17
2019-04-05T22:13:45.145Z,61.98
2019-04-05T22:16:13.593Z,63.92
2019-04-05T22:18:42.032Z,56.02
2019-04-05T22:21:10.471Z,58.25
2019-04-05T22:23:38.941Z,56.25
2019-04-05T22:26:07.376Z,55.47
2019-04-05T22:28:35.805Z,54.58
2019-04-05T22:31:04.266Z,55.23
2019-04-05T22:33:32.705Z,53.87
2019-04-05T22:36:01.141Z,53.05
2019-04-05T22:38:30.488Z,52.30
2019-04-05T22:40:58.926Z,50.90
2019-04-05T22:43:27.369Z,51.37
2019-04-05T22:45:55.842Z,52.00
2019-04-05T22:48:24.285Z,49.00
2019-04-05T22:50:52.706Z,53.42
2019-04-05T22:53:21.178Z,52.08
2019-04-05T22:55:49.609Z,52.50
2019-04-05T22:58:18.034Z,54.63
2019-04-05T23:00:46.493Z,56.33
2019-04-05T23:03:14.925Z,51.75
2019-04-05T23:05:43.353Z,51.95
2019-04-05T23:08:12.090Z,52.70
2019-04-05T23:10:40.584Z,51.88
2019-04-05T23:13:09.023Z,57.00
2019-04-05T23:15:37.480Z,58.42
2019-04-05T23:18:05.925Z,56.55
2019-04-05T23:20:34.621Z,54.63
2019-04-05T23:23:03.082Z,55.28
2019-04-05T23:25:31.518Z,59.40
2019-04-05T23:28:00.037Z,60.05
2019-04-05T23:30:30.421Z,57.75
2019-04-05T23:32:58.849Z,58.85
2019-04-05T23:35:27.285Z,64.15
2019-04-05T23:37:55.765Z,64.10
2019-04-05T23:40:24.199Z,66.33
2019-04-05T23:42:52.697Z,68.22
2019-04-05T23:45:21.153Z,68.72
2019-04-05T23:47:49.580Z,66.67
2019-04-05T23:50:18.011Z,68.50
2019-04-05T23:52:46.464Z,71.15
2019-04-05T23:55:15.133Z,67.53
2019-04-05T23:57:43.594Z,71.60
